sensor_id;sensor_type;location;lat;lon;timestamp;temperature;humidity
23073;DHT22;34865;51.046;3.732;2022-10-16T00:01:10;15.40;99.90
23073;DHT22;34865;51.046;3.732;2022-10-16T00:03:41;15.40;99.90
23073;DHT22;34865;51.046;3.732;2022-10-16T00:06:07;15.50;99.90
23073;DHT22;34865;51.046;3.732;2022-10-16T00:08:34;15.50;99.90
23073;DHT22;34865;51.046;3.732;2022-10-16T00:11:02;15.20;99.90
23073;DHT22;34865;51.046;3.732;2022-10-16T00:13:28;15.20;99.90
23073;DHT22;34865;51.046;3.732;2022-10-16T00:15:56;15.20;99.90
23073;DHT22;34865;51.046;3.732;2022-10-16T00:18:22;15.20;99.90
23073;DHT22;34865;51.046;3.732;2022-10-16T00:20:48;15.10;99.90
23073;DHT22;34865;51.046;3.732;2022-10-16T00:23:13;15.10;99.90
23073;DHT22;34865;51.046;3.732;2022-10-16T00:25:39;15.20;99.90
23073;DHT22;34865;51.046;3.732;2022-10-16T00:28:04;15.30;99.90
23073;DHT22;34865;51.046;3.732;2022-10-16T00:30:30;15.10;99.90
23073;DHT22;34865;51.046;3.732;2022-10-16T00:32:56;14.90;99.90
23073;DHT22;34865;51.046;3.732;2022-10-16T00:35:22;15.00;99.90
23073;DHT22;34865;51.046;3.732;2022-10-16T00:37:47;15.00;99.90
23073;DHT22;34865;51.046;3.732;2022-10-16T00:40:13;14.90;99.90
23073;DHT22;34865;51.046;3.732;2022-10-16T00:42:38;14.90;99.90
23073;DHT22;34865;51.046;3.732;2022-10-16T00:45:04;14.90;99.90
23073;DHT22;34865;51.046;3.732;2022-10-16T00:47:43;14.80;99.90
23073;DHT22;34865;51.046;3.732;2022-10-16T00:50:22;14.90;99.90
23073;DHT22;34865;51.046;3.732;2022-10-16T00:52:50;14.80;99.90
23073;DHT22;34865;51.046;3.732;2022-10-16T00:55:17;14.90;99.90
23073;DHT22;34865;51.046;3.732;2022-10-16T00:57:43;15.00;99.90
23073;DHT22;34865;51.046;3.732;2022-10-16T01:00:12;15.20;99.90
23073;DHT22;34865;51.046;3.732;2022-10-16T01:02:38;15.20;99.90
23073;DHT22;34865;51.046;3.732;2022-10-16T01:05:04;15.10;99.90
23073;DHT22;34865;51.046;3.732;2022-10-16T01:10:27;15.20;99.90
23073;DHT22;34865;51.046;3.732;2022-10-16T01:18:44;15.20;99.90
23073;DHT22;34865;51.046;3.732;2022-10-16T01:21:16;15.10;99.90
23073;DHT22;34865;51.046;3.732;2022-10-16T01:23:58;15.00;99.90
23073;DHT22;34865;51.046;3.732;2022-10-16T01:29:18;14.90;99.90
23073;DHT22;34865;51.046;3.732;2022-10-16T01:31:50;14.90;99.90
23073;DHT22;34865;51.046;3.732;2022-10-16T01:34:41;14.80;99.90
23073;DHT22;34865;51.046;3.732;2022-10-16T01:37:15;14.90;99.90
23073;DHT22;34865;51.046;3.732;2022-10-16T01:39:45;15.00;99.90
23073;DHT22;34865;51.046;3.732;2022-10-16T01:42:22;14.90;99.90
23073;DHT22;34865;51.046;3.732;2022-10-16T01:44:51;14.80;99.90
23073;DHT22;34865;51.046;3.732;2022-10-16T01:47:19;14.70;99.90
23073;DHT22;34865;51.046;3.732;2022-10-16T01:49:47;14.60;99.90
23073;DHT22;34865;51.046;3.732;2022-10-16T01:52:17;14.70;99.90
23073;DHT22;34865;51.046;3.732;2022-10-16T01:54:47;14.80;99.90
23073;DHT22;34865;51.046;3.732;2022-10-16T01:57:15;14.80;99.90
23073;DHT22;34865;51.046;3.732;2022-10-16T01:59:49;14.90;99.90
23073;DHT22;34865;51.046;3.732;2022-10-16T02:02:18;14.70;99.90
23073;DHT22;34865;51.046;3.732;2022-10-16T02:05:05;14.70;99.90
23073;DHT22;34865;51.046;3.732;2022-10-16T02:07:33;14.80;99.90
23073;DHT22;34865;51.046;3.732;2022-10-16T02:10:00;14.90;99.90
23073;DHT22;34865;51.046;3.732;2022-10-16T02:12:31;15.10;99.90
23073;DHT22;34865;51.046;3.732;2022-10-16T02:14:58;15.00;99.90
23073;DHT22;34865;51.046;3.732;2022-10-16T02:17:24;14.70;99.90
23073;DHT22;34865;51.046;3.732;2022-10-16T02:19:54;14.80;99.90
23073;DHT22;34865;51.046;3.732;2022-10-16T02:22:49;14.90;99.90
23073;DHT22;34865;51.046;3.732;2022-10-16T02:25:27;15.00;99.90
23073;DHT22;34865;51.046;3.732;2022-10-16T02:28:06;15.00;99.90
23073;DHT22;34865;51.046;3.732;2022-10-16T02:30:39;14.70;99.90
23073;DHT22;34865;51.046;3.732;2022-10-16T02:33:09;14.70;99.90
23073;DHT22;34865;51.046;3.732;2022-10-16T02:35:36;14.60;99.90
23073;DHT22;34865;51.046;3.732;2022-10-16T02:38:02;14.70;99.90
23073;DHT22;34865;51.046;3.732;2022-10-16T02:40:28;14.70;99.90
23073;DHT22;34865;51.046;3.732;2022-10-16T02:42:54;14.70;99.90
23073;DHT22;34865;51.046;3.732;2022-10-16T02:45:21;14.50;99.90
23073;DHT22;34865;51.046;3.732;2022-10-16T02:47:47;14.60;99.90
23073;DHT22;34865;51.046;3.732;2022-10-16T02:50:13;14.80;99.90
23073;DHT22;34865;51.046;3.732;2022-10-16T02:52:39;14.70;99.90
23073;DHT22;34865;51.046;3.732;2022-10-16T02:55:05;14.70;99.90
23073;DHT22;34865;51.046;3.732;2022-10-16T02:57:30;14.60;99.90
23073;DHT22;34865;51.046;3.732;2022-10-16T02:59:57;14.60;99.90
23073;DHT22;34865;51.046;3.732;2022-10-16T03:02:22;14.80;99.90
23073;DHT22;34865;51.046;3.732;2022-10-16T03:04:48;14.70;99.90
23073;DHT22;34865;51.046;3.732;2022-10-16T03:07:14;14.60;99.90
23073;DHT22;34865;51.046;3.732;2022-10-16T03:09:40;14.50;99.90
23073;DHT22;34865;51.046;3.732;2022-10-16T03:12:05;14.50;99.90
23073;DHT22;34865;51.046;3.732;2022-10-16T03:14:31;14.60;99.90
23073;DHT22;34865;51.046;3.732;2022-10-16T03:16:57;14.60;99.90
23073;DHT22;34865;51.046;3.732;2022-10-16T03:19:22;14.60;99.90
23073;DHT22;34865;51.046;3.732;2022-10-16T03:21:48;14.70;99.90
23073;DHT22;34865;51.046;3.732;2022-10-16T03:24:14;14.90;99.90
23073;DHT22;34865;51.046;3.732;2022-10-16T03:26:39;14.80;99.90
23073;DHT22;34865;51.046;3.732;2022-10-16T03:29:05;14.70;99.90
23073;DHT22;34865;51.046;3.732;2022-10-16T03:31:32;14.60;99.90
23073;DHT22;34865;51.046;3.732;2022-10-16T03:33:57;14.60;99.90
23073;DHT22;34865;51.046;3.732;2022-10-16T03:36:23;14.60;99.90
23073;DHT22;34865;51.046;3.732;2022-10-16T03:38:49;14.60;99.90
23073;DHT22;34865;51.046;3.732;2022-10-16T03:41:15;14.70;99.90
23073;DHT22;34865;51.046;3.732;2022-10-16T03:43:40;14.70;99.90
23073;DHT22;34865;51.046;3.732;2022-10-16T03:46:06;14.80;99.90
23073;DHT22;34865;51.046;3.732;2022-10-16T03:48:32;14.80;99.90
23073;DHT22;34865;51.046;3.732;2022-10-16T03:50:58;14.70;99.90
23073;DHT22;34865;51.046;3.732;2022-10-16T03:53:24;14.60;99.90
23073;DHT22;34865;51.046;3.732;2022-10-16T03:55:49;14.60;99.90
23073;DHT22;34865;51.046;3.732;2022-10-16T03:58:15;14.80;99.90
23073;DHT22;34865;51.046;3.732;2022-10-16T04:00:45;14.90;99.90
23073;DHT22;34865;51.046;3.732;2022-10-16T04:03:12;14.80;99.90
23073;DHT22;34865;51.046;3.732;2022-10-16T04:05:38;14.70;99.90
23073;DHT22;34865;51.046;3.732;2022-10-16T04:08:04;14.90;99.90
23073;DHT22;34865;51.046;3.732;2022-10-16T04:10:29;14.80;99.90
23073;DHT22;34865;51.046;3.732;2022-10-16T04:12:55;14.80;99.90
23073;DHT22;34865;51.046;3.732;2022-10-16T04:15:22;14.80;99.90
23073;DHT22;34865;51.046;3.732;2022-10-16T04:17:47;14.70;99.90
23073;DHT22;34865;51.046;3.732;2022-10-16T04:20:13;14.60;99.90
23073;DHT22;34865;51.046;3.732;2022-10-16T04:22:39;14.40;99.90
23073;DHT22;34865;51.046;3.732;2022-10-16T04:25:05;14.40;99.90
23073;DHT22;34865;51.046;3.732;2022-10-16T04:27:35;14.30;99.90
23073;DHT22;34865;51.046;3.732;2022-10-16T04:30:00;14.30;99.90
23073;DHT22;34865;51.046;3.732;2022-10-16T04:32:26;14.30;99.90
23073;DHT22;34865;51.046;3.732;2022-10-16T04:34:52;14.40;99.90
23073;DHT22;34865;51.046;3.732;2022-10-16T04:37:18;14.40;99.90
23073;DHT22;34865;51.046;3.732;2022-10-16T04:39:44;14.40;99.90
23073;DHT22;34865;51.046;3.732;2022-10-16T04:42:10;14.40;99.90
23073;DHT22;34865;51.046;3.732;2022-10-16T04:44:36;14.40;99.90
23073;DHT22;34865;51.046;3.732;2022-10-16T04:47:02;14.20;99.90
23073;DHT22;34865;51.046;3.732;2022-10-16T04:49:27;14.20;99.90
23073;DHT22;34865;51.046;3.732;2022-10-16T04:51:53;14.10;99.90
23073;DHT22;34865;51.046;3.732;2022-10-16T04:54:18;14.00;99.90
23073;DHT22;34865;51.046;3.732;2022-10-16T04:56:44;14.10;99.90
23073;DHT22;34865;51.046;3.732;2022-10-16T04:59:14;14.10;99.90
23073;DHT22;34865;51.046;3.732;2022-10-16T05:01:40;14.10;99.90
23073;DHT22;34865;51.046;3.732;2022-10-16T05:04:06;14.20;99.90
23073;DHT22;34865;51.046;3.732;2022-10-16T05:06:32;14.20;99.90
23073;DHT22;34865;51.046;3.732;2022-10-16T05:08:58;14.30;99.90
23073;DHT22;34865;51.046;3.732;2022-10-16T05:11:23;14.40;99.90
23073;DHT22;34865;51.046;3.732;2022-10-16T05:13:49;14.40;99.90
23073;DHT22;34865;51.046;3.732;2022-10-16T05:16:15;14.30;99.90
23073;DHT22;34865;51.046;3.732;2022-10-16T05:18:40;14.30;99.90
23073;DHT22;34865;51.046;3.732;2022-10-16T05:21:06;14.40;99.90
23073;DHT22;34865;51.046;3.732;2022-10-16T05:23:32;14.50;99.90
23073;DHT22;34865;51.046;3.732;2022-10-16T05:25:58;14.40;99.90
23073;DHT22;34865;51.046;3.732;2022-10-16T05:28:26;14.40;99.90
23073;DHT22;34865;51.046;3.732;2022-10-16T05:30:52;14.30;99.90
23073;DHT22;34865;51.046;3.732;2022-10-16T05:33:20;14.40;99.90
23073;DHT22;34865;51.046;3.732;2022-10-16T05:35:46;14.60;99.90
23073;DHT22;34865;51.046;3.732;2022-10-16T05:38:12;14.80;99.90
23073;DHT22;34865;51.046;3.732;2022-10-16T05:40:37;14.90;99.90
23073;DHT22;34865;51.046;3.732;2022-10-16T05:43:03;15.00;99.90
23073;DHT22;34865;51.046;3.732;2022-10-16T05:45:29;15.00;99.90
23073;DHT22;34865;51.046;3.732;2022-10-16T05:47:54;15.00;99.90
23073;DHT22;34865;51.046;3.732;2022-10-16T05:50:20;15.00;99.90
23073;DHT22;34865;51.046;3.732;2022-10-16T05:52:45;14.90;99.90
23073;DHT22;34865;51.046;3.732;2022-10-16T05:55:11;14.90;99.90
23073;DHT22;34865;51.046;3.732;2022-10-16T05:57:37;14.70;99.90
23073;DHT22;34865;51.046;3.732;2022-10-16T06:00:03;14.60;99.90
23073;DHT22;34865;51.046;3.732;2022-10-16T06:02:29;14.50;99.90
23073;DHT22;34865;51.046;3.732;2022-10-16T06:04:54;14.50;99.90
23073;DHT22;34865;51.046;3.732;2022-10-16T06:07:21;14.50;99.90
23073;DHT22;34865;51.046;3.732;2022-10-16T06:09:51;14.50;99.90
23073;DHT22;34865;51.046;3.732;2022-10-16T06:12:17;14.50;99.90
23073;DHT22;34865;51.046;3.732;2022-10-16T06:14:42;14.60;99.90
23073;DHT22;34865;51.046;3.732;2022-10-16T06:17:08;14.50;99.90
23073;DHT22;34865;51.046;3.732;2022-10-16T06:19:34;14.40;99.90
23073;DHT22;34865;51.046;3.732;2022-10-16T06:22:00;14.60;99.90
23073;DHT22;34865;51.046;3.732;2022-10-16T06:24:25;14.60;99.90
23073;DHT22;34865;51.046;3.732;2022-10-16T06:26:51;14.40;99.90
23073;DHT22;34865;51.046;3.732;2022-10-16T06:29:17;14.40;99.90
23073;DHT22;34865;51.046;3.732;2022-10-16T06:31:42;14.30;99.90
23073;DHT22;34865;51.046;3.732;2022-10-16T06:34:09;14.40;99.90
23073;DHT22;34865;51.046;3.732;2022-10-16T06:36:37;14.50;99.90
23073;DHT22;34865;51.046;3.732;2022-10-16T06:39:03;14.60;99.90
23073;DHT22;34865;51.046;3.732;2022-10-16T06:41:30;14.50;99.90
23073;DHT22;34865;51.046;3.732;2022-10-16T06:43:55;14.40;99.90
23073;DHT22;34865;51.046;3.732;2022-10-16T06:46:23;14.60;99.90
23073;DHT22;34865;51.046;3.732;2022-10-16T06:48:49;14.80;99.90
23073;DHT22;34865;51.046;3.732;2022-10-16T06:51:19;14.90;99.90
23073;DHT22;34865;51.046;3.732;2022-10-16T06:53:47;15.00;99.90
23073;DHT22;34865;51.046;3.732;2022-10-16T06:56:17;15.00;99.90
23073;DHT22;34865;51.046;3.732;2022-10-16T06:58:43;15.20;99.90
23073;DHT22;34865;51.046;3.732;2022-10-16T07:01:09;15.20;99.90
23073;DHT22;34865;51.046;3.732;2022-10-16T07:03:40;15.30;99.90
23073;DHT22;34865;51.046;3.732;2022-10-16T07:06:08;15.40;99.90
23073;DHT22;34865;51.046;3.732;2022-10-16T07:08:35;15.40;99.90
23073;DHT22;34865;51.046;3.732;2022-10-16T07:11:04;15.50;99.90
23073;DHT22;34865;51.046;3.732;2022-10-16T07:13:33;15.30;99.90
23073;DHT22;34865;51.046;3.732;2022-10-16T07:16:07;15.30;99.90
23073;DHT22;34865;51.046;3.732;2022-10-16T07:18:34;15.20;99.90
23073;DHT22;34865;51.046;3.732;2022-10-16T07:21:09;15.30;99.90
23073;DHT22;34865;51.046;3.732;2022-10-16T07:23:34;15.50;99.90
23073;DHT22;34865;51.046;3.732;2022-10-16T07:26:00;15.40;99.90
23073;DHT22;34865;51.046;3.732;2022-10-16T07:28:27;15.20;99.90
23073;DHT22;34865;51.046;3.732;2022-10-16T07:30:52;15.00;99.90
23073;DHT22;34865;51.046;3.732;2022-10-16T07:33:18;14.90;99.90
23073;DHT22;34865;51.046;3.732;2022-10-16T07:36:02;15.00;99.90
23073;DHT22;34865;51.046;3.732;2022-10-16T07:38:28;15.10;99.90
23073;DHT22;34865;51.046;3.732;2022-10-16T07:41:02;15.20;99.90
23073;DHT22;34865;51.046;3.732;2022-10-16T07:43:28;15.30;99.90
23073;DHT22;34865;51.046;3.732;2022-10-16T07:45:54;15.50;99.90
23073;DHT22;34865;51.046;3.732;2022-10-16T07:48:21;15.60;99.90
23073;DHT22;34865;51.046;3.732;2022-10-16T07:50:46;16.10;99.90
23073;DHT22;34865;51.046;3.732;2022-10-16T07:53:13;16.30;99.90
23073;DHT22;34865;51.046;3.732;2022-10-16T07:55:39;16.30;99.90
23073;DHT22;34865;51.046;3.732;2022-10-16T07:58:05;16.30;99.90
23073;DHT22;34865;51.046;3.732;2022-10-16T08:00:31;16.10;99.90
23073;DHT22;34865;51.046;3.732;2022-10-16T08:02:57;16.10;99.90
23073;DHT22;34865;51.046;3.732;2022-10-16T08:05:27;16.10;99.90
23073;DHT22;34865;51.046;3.732;2022-10-16T08:07:53;16.00;99.90
23073;DHT22;34865;51.046;3.732;2022-10-16T08:10:21;16.70;99.90
23073;DHT22;34865;51.046;3.732;2022-10-16T08:12:47;18.20;99.90
23073;DHT22;34865;51.046;3.732;2022-10-16T08:15:12;20.10;99.90
23073;DHT22;34865;51.046;3.732;2022-10-16T08:17:38;20.70;99.90
23073;DHT22;34865;51.046;3.732;2022-10-16T08:20:04;21.50;99.90
23073;DHT22;34865;51.046;3.732;2022-10-16T08:22:30;22.40;99.90
23073;DHT22;34865;51.046;3.732;2022-10-16T08:24:56;23.40;99.90
23073;DHT22;34865;51.046;3.732;2022-10-16T08:27:22;24.20;99.90
23073;DHT22;34865;51.046;3.732;2022-10-16T08:29:48;24.90;99.90
23073;DHT22;34865;51.046;3.732;2022-10-16T08:32:14;24.90;99.90
23073;DHT22;34865;51.046;3.732;2022-10-16T08:34:40;24.70;99.90
23073;DHT22;34865;51.046;3.732;2022-10-16T08:37:05;23.60;99.90
23073;DHT22;34865;51.046;3.732;2022-10-16T08:39:33;23.40;99.90
23073;DHT22;34865;51.046;3.732;2022-10-16T08:42:11;23.10;99.90
23073;DHT22;34865;51.046;3.732;2022-10-16T08:47:44;23.10;99.90
23073;DHT22;34865;51.046;3.732;2022-10-16T08:50:13;23.70;99.90
23073;DHT22;34865;51.046;3.732;2022-10-16T08:52:42;23.50;99.90
23073;DHT22;34865;51.046;3.732;2022-10-16T08:58:01;23.10;99.90
23073;DHT22;34865;51.046;3.732;2022-10-16T09:00:27;22.50;99.90
23073;DHT22;34865;51.046;3.732;2022-10-16T09:06:17;22.10;99.90
23073;DHT22;34865;51.046;3.732;2022-10-16T09:17:16;23.40;99.90
23073;DHT22;34865;51.046;3.732;2022-10-16T09:19:53;24.40;99.90
23073;DHT22;34865;51.046;3.732;2022-10-16T09:22:26;24.40;99.90
23073;DHT22;34865;51.046;3.732;2022-10-16T09:24:54;24.80;99.90
23073;DHT22;34865;51.046;3.732;2022-10-16T09:27:20;25.70;99.90
23073;DHT22;34865;51.046;3.732;2022-10-16T09:29:46;25.80;99.90
23073;DHT22;34865;51.046;3.732;2022-10-16T09:32:14;26.10;99.90
23073;DHT22;34865;51.046;3.732;2022-10-16T09:34:48;25.90;99.90
23073;DHT22;34865;51.046;3.732;2022-10-16T09:37:18;25.70;99.90
23073;DHT22;34865;51.046;3.732;2022-10-16T09:39:50;25.60;99.90
23073;DHT22;34865;51.046;3.732;2022-10-16T09:42:36;25.20;99.90
23073;DHT22;34865;51.046;3.732;2022-10-16T09:45:03;25.00;99.90
23073;DHT22;34865;51.046;3.732;2022-10-16T09:47:30;24.80;99.90
23073;DHT22;34865;51.046;3.732;2022-10-16T09:49:57;25.20;99.90
23073;DHT22;34865;51.046;3.732;2022-10-16T09:52:25;25.30;99.90
23073;DHT22;34865;51.046;3.732;2022-10-16T09:54:56;25.20;99.90
23073;DHT22;34865;51.046;3.732;2022-10-16T09:57:23;25.20;99.90
23073;DHT22;34865;51.046;3.732;2022-10-16T09:59:54;25.20;99.90
23073;DHT22;34865;51.046;3.732;2022-10-16T10:02:29;24.50;99.90
23073;DHT22;34865;51.046;3.732;2022-10-16T10:04:55;24.20;99.90
23073;DHT22;34865;51.046;3.732;2022-10-16T10:07:33;24.00;99.90
23073;DHT22;34865;51.046;3.732;2022-10-16T10:10:04;23.80;99.90
23073;DHT22;34865;51.046;3.732;2022-10-16T10:12:32;24.00;99.90
23073;DHT22;34865;51.046;3.732;2022-10-16T10:15:04;23.80;99.90
23073;DHT22;34865;51.046;3.732;2022-10-16T10:17:31;23.40;99.90
23073;DHT22;34865;51.046;3.732;2022-10-16T10:20:01;22.80;99.90
23073;DHT22;34865;51.046;3.732;2022-10-16T10:22:40;21.90;99.90
23073;DHT22;34865;51.046;3.732;2022-10-16T10:25:15;21.40;99.90
23073;DHT22;34865;51.046;3.732;2022-10-16T10:38:56;20.90;99.90
23073;DHT22;34865;51.046;3.732;2022-10-16T10:44:07;21.10;99.90
23073;DHT22;34865;51.046;3.732;2022-10-16T10:47:12;21.30;99.90
23073;DHT22;34865;51.046;3.732;2022-10-16T10:52:38;21.00;99.90
23073;DHT22;34865;51.046;3.732;2022-10-16T10:55:40;20.70;99.90
23073;DHT22;34865;51.046;3.732;2022-10-16T11:01:16;20.40;99.90
23073;DHT22;34865;51.046;3.732;2022-10-16T11:06:25;19.80;99.90
23073;DHT22;34865;51.046;3.732;2022-10-16T11:09:16;19.90;99.90
23073;DHT22;34865;51.046;3.732;2022-10-16T11:11:54;20.00;99.90
23073;DHT22;34865;51.046;3.732;2022-10-16T11:14:37;19.80;99.90
23073;DHT22;34865;51.046;3.732;2022-10-16T11:20:04;20.20;99.90
23073;DHT22;34865;51.046;3.732;2022-10-16T11:25:32;20.20;99.90
23073;DHT22;34865;51.046;3.732;2022-10-16T11:28:02;20.40;99.90
23073;DHT22;34865;51.046;3.732;2022-10-16T11:30:31;20.70;99.90
23073;DHT22;34865;51.046;3.732;2022-10-16T11:38:45;20.30;99.90
23073;DHT22;34865;51.046;3.732;2022-10-16T11:41:17;20.20;99.90
23073;DHT22;34865;51.046;3.732;2022-10-16T11:46:46;20.40;99.90
23073;DHT22;34865;51.046;3.732;2022-10-16T11:49:16;20.60;99.90
23073;DHT22;34865;51.046;3.732;2022-10-16T11:51:51;20.40;99.90
23073;DHT22;34865;51.046;3.732;2022-10-16T11:57:01;20.40;99.90
23073;DHT22;34865;51.046;3.732;2022-10-16T11:59:51;20.50;99.90
23073;DHT22;34865;51.046;3.732;2022-10-16T12:02:35;20.40;99.90
23073;DHT22;34865;51.046;3.732;2022-10-16T12:08:06;19.70;99.90
23073;DHT22;34865;51.046;3.732;2022-10-16T12:10:34;19.90;99.90
23073;DHT22;34865;51.046;3.732;2022-10-16T12:13:05;20.00;99.90
23073;DHT22;34865;51.046;3.732;2022-10-16T12:15:50;19.90;99.90
23073;DHT22;34865;51.046;3.732;2022-10-16T12:18:24;19.90;99.90
23073;DHT22;34865;51.046;3.732;2022-10-16T12:20:57;19.70;99.90
23073;DHT22;34865;51.046;3.732;2022-10-16T12:23:33;19.80;99.90
23073;DHT22;34865;51.046;3.732;2022-10-16T12:26:01;19.90;99.90
23073;DHT22;34865;51.046;3.732;2022-10-16T12:28:29;20.00;99.90
23073;DHT22;34865;51.046;3.732;2022-10-16T12:31:02;20.40;99.90
23073;DHT22;34865;51.046;3.732;2022-10-16T12:33:32;20.30;99.90
23073;DHT22;34865;51.046;3.732;2022-10-16T12:36:00;20.30;99.90
23073;DHT22;34865;51.046;3.732;2022-10-16T12:41:11;20.10;99.90
23073;DHT22;34865;51.046;3.732;2022-10-16T12:43:45;20.30;99.90
23073;DHT22;34865;51.046;3.732;2022-10-16T12:48:41;20.60;99.90
23073;DHT22;34865;51.046;3.732;2022-10-16T12:51:33;20.60;99.90
23073;DHT22;34865;51.046;3.732;2022-10-16T13:13:49;20.60;99.90
23073;DHT22;34865;51.046;3.732;2022-10-16T13:16:27;20.70;99.90
23073;DHT22;34865;51.046;3.732;2022-10-16T13:19:38;20.60;99.90
23073;DHT22;34865;51.046;3.732;2022-10-16T13:30:20;20.20;99.90
23073;DHT22;34865;51.046;3.732;2022-10-16T13:32:49;20.40;99.90
23073;DHT22;34865;51.046;3.732;2022-10-16T13:35:21;20.60;99.90
23073;DHT22;34865;51.046;3.732;2022-10-16T13:37:48;20.70;99.90
23073;DHT22;34865;51.046;3.732;2022-10-16T13:40:20;20.90;99.90
23073;DHT22;34865;51.046;3.732;2022-10-16T13:42:46;21.10;99.90
23073;DHT22;34865;51.046;3.732;2022-10-16T13:45:20;21.30;99.90
23073;DHT22;34865;51.046;3.732;2022-10-16T13:47:46;21.20;99.90
23073;DHT22;34865;51.046;3.732;2022-10-16T13:50:16;21.20;99.90
23073;DHT22;34865;51.046;3.732;2022-10-16T13:52:43;21.00;99.90
23073;DHT22;34865;51.046;3.732;2022-10-16T13:55:14;20.60;99.90
23073;DHT22;34865;51.046;3.732;2022-10-16T13:57:40;20.10;99.90
23073;DHT22;34865;51.046;3.732;2022-10-16T14:00:20;20.10;99.90
23073;DHT22;34865;51.046;3.732;2022-10-16T14:02:51;20.30;99.90
23073;DHT22;34865;51.046;3.732;2022-10-16T14:05:18;20.30;99.90
23073;DHT22;34865;51.046;3.732;2022-10-16T14:07:48;20.30;99.90
23073;DHT22;34865;51.046;3.732;2022-10-16T14:10:22;20.20;99.90
23073;DHT22;34865;51.046;3.732;2022-10-16T14:13:06;20.10;99.90
23073;DHT22;34865;51.046;3.732;2022-10-16T14:15:35;20.20;99.90
23073;DHT22;34865;51.046;3.732;2022-10-16T14:18:01;20.50;99.90
23073;DHT22;34865;51.046;3.732;2022-10-16T14:20:29;20.60;99.90
23073;DHT22;34865;51.046;3.732;2022-10-16T14:23:04;20.80;99.90
23073;DHT22;34865;51.046;3.732;2022-10-16T14:25:32;20.70;99.90
23073;DHT22;34865;51.046;3.732;2022-10-16T14:30:56;20.30;99.90
23073;DHT22;34865;51.046;3.732;2022-10-16T14:38:40;20.20;99.90
23073;DHT22;34865;51.046;3.732;2022-10-16T14:41:07;20.00;99.90
23073;DHT22;34865;51.046;3.732;2022-10-16T14:43:36;19.80;99.90
23073;DHT22;34865;51.046;3.732;2022-10-16T14:46:20;19.80;99.90
23073;DHT22;34865;51.046;3.732;2022-10-16T14:48:48;19.90;99.90
23073;DHT22;34865;51.046;3.732;2022-10-16T14:51:18;19.90;99.90
23073;DHT22;34865;51.046;3.732;2022-10-16T14:53:45;19.70;99.90
23073;DHT22;34865;51.046;3.732;2022-10-16T14:56:22;19.40;99.90
23073;DHT22;34865;51.046;3.732;2022-10-16T14:58:49;19.20;99.90
23073;DHT22;34865;51.046;3.732;2022-10-16T15:01:15;19.30;99.90
23073;DHT22;34865;51.046;3.732;2022-10-16T15:03:40;19.30;99.90
23073;DHT22;34865;51.046;3.732;2022-10-16T15:06:16;19.60;99.90
23073;DHT22;34865;51.046;3.732;2022-10-16T15:08:42;19.70;99.90
23073;DHT22;34865;51.046;3.732;2022-10-16T15:11:15;19.60;99.90
23073;DHT22;34865;51.046;3.732;2022-10-16T15:13:41;19.60;99.90
23073;DHT22;34865;51.046;3.732;2022-10-16T15:16:17;19.70;99.90
23073;DHT22;34865;51.046;3.732;2022-10-16T15:18:43;19.70;99.90
23073;DHT22;34865;51.046;3.732;2022-10-16T15:21:30;19.70;99.90
23073;DHT22;34865;51.046;3.732;2022-10-16T15:23:57;19.70;99.90
23073;DHT22;34865;51.046;3.732;2022-10-16T15:26:24;19.60;99.90
23073;DHT22;34865;51.046;3.732;2022-10-16T15:28:50;19.70;99.90
23073;DHT22;34865;51.046;3.732;2022-10-16T15:31:15;19.70;99.90
23073;DHT22;34865;51.046;3.732;2022-10-16T15:33:42;19.70;99.90
23073;DHT22;34865;51.046;3.732;2022-10-16T15:36:08;19.70;99.90
23073;DHT22;34865;51.046;3.732;2022-10-16T15:38:34;19.70;99.90
23073;DHT22;34865;51.046;3.732;2022-10-16T15:41:00;19.60;99.90
23073;DHT22;34865;51.046;3.732;2022-10-16T15:43:26;19.60;99.90
23073;DHT22;34865;51.046;3.732;2022-10-16T15:46:11;19.50;99.90
23073;DHT22;34865;51.046;3.732;2022-10-16T15:48:39;19.50;99.90
23073;DHT22;34865;51.046;3.732;2022-10-16T15:51:06;19.40;99.90
23073;DHT22;34865;51.046;3.732;2022-10-16T15:53:32;19.40;99.90
23073;DHT22;34865;51.046;3.732;2022-10-16T15:56:02;19.50;99.90
23073;DHT22;34865;51.046;3.732;2022-10-16T15:58:28;19.50;99.90
23073;DHT22;34865;51.046;3.732;2022-10-16T16:00:59;19.50;99.90
23073;DHT22;34865;51.046;3.732;2022-10-16T16:03:27;19.20;99.90
23073;DHT22;34865;51.046;3.732;2022-10-16T16:05:53;19.10;99.90
23073;DHT22;34865;51.046;3.732;2022-10-16T16:08:19;19.30;99.90
23073;DHT22;34865;51.046;3.732;2022-10-16T16:10:45;19.30;99.90
23073;DHT22;34865;51.046;3.732;2022-10-16T16:13:11;19.30;99.90
23073;DHT22;34865;51.046;3.732;2022-10-16T16:15:40;19.20;99.90
23073;DHT22;34865;51.046;3.732;2022-10-16T16:18:06;19.10;99.90
23073;DHT22;34865;51.046;3.732;2022-10-16T16:20:32;19.10;99.90
23073;DHT22;34865;51.046;3.732;2022-10-16T16:22:57;19.00;99.90
23073;DHT22;34865;51.046;3.732;2022-10-16T16:25:23;19.10;99.90
23073;DHT22;34865;51.046;3.732;2022-10-16T16:27:49;19.10;99.90
23073;DHT22;34865;51.046;3.732;2022-10-16T16:30:14;19.20;99.90
23073;DHT22;34865;51.046;3.732;2022-10-16T16:32:40;19.30;99.90
23073;DHT22;34865;51.046;3.732;2022-10-16T16:35:05;19.30;99.90
23073;DHT22;34865;51.046;3.732;2022-10-16T16:37:31;19.30;99.90
23073;DHT22;34865;51.046;3.732;2022-10-16T16:39:57;19.30;99.90
23073;DHT22;34865;51.046;3.732;2022-10-16T16:42:26;19.30;99.90
23073;DHT22;34865;51.046;3.732;2022-10-16T16:44:52;19.10;99.90
23073;DHT22;34865;51.046;3.732;2022-10-16T16:47:18;19.10;99.90
23073;DHT22;34865;51.046;3.732;2022-10-16T16:49:44;18.90;99.90
23073;DHT22;34865;51.046;3.732;2022-10-16T16:52:09;18.90;99.90
23073;DHT22;34865;51.046;3.732;2022-10-16T16:54:35;18.80;99.90
23073;DHT22;34865;51.046;3.732;2022-10-16T16:57:00;18.80;99.90
23073;DHT22;34865;51.046;3.732;2022-10-16T16:59:26;18.80;99.90
23073;DHT22;34865;51.046;3.732;2022-10-16T17:01:52;19.00;99.90
23073;DHT22;34865;51.046;3.732;2022-10-16T17:04:17;19.10;99.90
23073;DHT22;34865;51.046;3.732;2022-10-16T17:06:44;19.10;99.90
23073;DHT22;34865;51.046;3.732;2022-10-16T17:09:11;19.20;99.90
23073;DHT22;34865;51.046;3.732;2022-10-16T17:11:40;18.90;99.90
23073;DHT22;34865;51.046;3.732;2022-10-16T17:14:08;18.70;99.90
23073;DHT22;34865;51.046;3.732;2022-10-16T17:16:36;18.60;99.90
23073;DHT22;34865;51.046;3.732;2022-10-16T17:19:13;18.70;99.90
23073;DHT22;34865;51.046;3.732;2022-10-16T17:21:40;18.90;99.90
23073;DHT22;34865;51.046;3.732;2022-10-16T17:24:06;18.70;99.90
23073;DHT22;34865;51.046;3.732;2022-10-16T17:26:32;18.70;99.90
23073;DHT22;34865;51.046;3.732;2022-10-16T17:29:00;18.70;99.90
23073;DHT22;34865;51.046;3.732;2022-10-16T17:31:32;18.80;99.90
23073;DHT22;34865;51.046;3.732;2022-10-16T17:33:59;18.60;99.90